Station: Portable Npws Nsw04  

  Atmospheric Gas Attenuation - ITU Rec 676-11   ----------------- dB/100km -----------------
Date Time Temp RH % AH g/m3 Dew Point Wind Direction Speed kph Gust kph Barometer mB Rainfall Since 9am 24GHz 47GHz 76GHz 122GHz 134GHz 241GHz
08/05 12:20 10.7 59 5.8 3.1 2 4 1013.1 0 13.7 22.3 30.3 79.0 65.8 223.9
08/05 12:10 11.1 61 6.15 3.9 2 4 1013.1 0 14.5 22.8 31.4 82.1 69.8 238.0
08/05 12:00 10.9 57 5.67 2.8 2 2 1013.1 0 13.5 22.1 29.7 77.5 64.1 217.8
08/05 11:50 10.4 62 5.98 3.5 2 2 1013.1 0 14.1 22.7 31.1 81.1 68.3 232.6
08/05 11:40 11 59 5.91 3.4 2 2 1013.1 0 14.0 22.4 30.6 79.8 66.9 227.8
08/05 11:30 10.6 61 5.96 3.4 2 4 1013.1 0 14.1 22.6 30.9 80.7 67.9 231.2
08/05 11:20 11 57 5.71 2.9 2 2 1013.1 0 13.5 22.1 29.8 77.8 64.5 219.2
08/05 11:10 10.3 64 6.13 3.9 2 2 1013.1 0 14.5 22.9 31.7 82.7 70.3 239.5
08/05 11:00 9.3 64 5.75 2.9 2 2 1013.1 0 13.7 22.6 30.6 79.9 66.4 225.7
08/05 10:50 9.4 62 5.61 2.5 2 2 1013.1 0 13.4 22.4 30.1 78.4 64.5 219.2
08/05 10:40 9.5 63 5.74 2.9 2 2 1013.1 0 13.7 22.5 30.5 79.6 66.1 224.7
08/05 10:30 9.9 66 6.16 3.8 2 2 1013.1 0 14.5 23.1 32.0 83.5 71.0 242.1
08/05 10:20 9.6 65 5.96 3.3 2 2 1013.1 0 14.1 22.9 31.3 81.7 68.8 234.1
08/05 10:10 9 65 5.73 2.9 2 2 1013.1 0 13.7 22.6 30.7 80.0 66.4 225.6
08/05 10:00 8.6 68 5.85 3.1 2 2 1013.1 0 13.9 22.9 31.3 81.6 68.2 232.1
08/05 09:50 8.5 70 5.98 3.3 2 2 1013.1 0 14.2 23.2 31.8 83.1 70.0 238.2
08/05 09:40 8.2 68 5.7 2.7 2 2 1013.1 0 13.6 22.8 30.8 80.5 66.7 226.6
08/05 09:30 8.1 68 5.66 2.6 2 2 1013.1 0 13.5 22.8 30.7 80.2 66.3 225.1
08/05 09:20 7.3 70 5.53 2.3 2 2 1013.1 0 13.3 22.8 30.5 79.6 65.3 221.5
08/05 09:10 7.1 72 5.62 2.4 2 4 1013.1 0 13.5 23.0 31.0 80.8 66.6 226.1
08/05 09:00 6.7 76 5.78 2.8 2 2 1013.1 3.6 13.8 23.3 31.7 82.9 69.0 234.5
08/05 08:50 6.3 75 5.55 2.2 2 2 1013.1 3.6 13.4 23.0 31.0 80.9 66.4 225.2
08/05 08:40 6.1 75 5.48 2.1 2 2 1013.1 3.6 13.2 23.0 30.8 80.3 65.6 222.6
08/05 08:30 5.6 77 5.45 2 2 2 1013.1 3.6 13.2 23.1 30.9 80.5 65.7 222.6
08/05 08:20 5.4 77 5.38 1.8 2 2 1013.1 3.6 13.0 23.0 30.7 80.0 64.9 220.0
08/05 08:10 5.4 79 5.52 2 2 2 1013.1 3.6 13.3 23.2 31.2 81.5 66.7 226.4
08/05 08:00 5.3 78 5.41 1.8 2 2 1013.1 3.6 13.1 23.1 30.8 80.4 65.4 221.6
08/05 07:50 5.1 79 5.41 1.7 2 2 1013.1 3.6 13.1 23.1 30.9 80.6 65.6 222.2
08/05 07:40 4.7 80 5.33 1.6 2 2 1013.1 3.6 12.9 23.1 30.7 80.2 64.8 219.6
08/05 07:30 4.5 81 5.33 1.5 2 2 1013.1 3.6 13.0 23.2 30.8 80.4 65.0 220.2
08/05 07:20 4.3 82 5.32 1.5 2 2 1013.1 3.6 12.9 23.2 30.9 80.5 65.0 220.3
08/05 07:10 3.9 84 5.31 1.4 2 2 1013.1 3.6 12.9 23.3 31.0 80.8 65.3 221.0
08/05 07:00 3.5 86 5.29 1.4 2 2 1013.1 3.6 12.9 23.4 31.0 81.0 65.3 221.1
08/05 06:50 3 90 5.36 1.5 2 2 1013.1 3.6 13.1 23.6 31.5 82.3 66.7 225.9
08/05 06:40 2.9 90 5.32 1.5 2 2 1013.1 3.6 13.0 23.6 31.4 81.9 66.2 224.3
08/05 06:30 2.7 92 5.37 1.5 2 2 1013.1 3.6 13.1 23.7 31.7 82.7 67.1 227.2
08/05 06:20 2.5 92 5.29 1.4 0 2 1013.1 3.6 12.9 23.6 31.4 82.0 66.2 224.0
08/05 06:10 2.4 92 5.26 1.3 2 2 1013.1 3.6 12.9 23.6 31.4 81.8 65.9 222.8
08/05 06:00 2.5 92 5.29 1.3 2 2 1013.1 3.6 12.9 23.6 31.4 82.0 66.2 224.0
08/05 05:50 2.5 92 5.29 1.3 2 2 1013.1 3.6 12.9 23.6 31.4 82.0 66.2 224.0
08/05 05:40 2.4 93 5.32 1.4 2 2 1013.1 3.6 13.0 23.7 31.6 82.5 66.7 225.7
08/05 05:30 2.3 93 5.28 1.3 2 2 1013.1 3.6 12.9 23.7 31.5 82.1 66.2 224.1
08/05 05:20 2.2 94 5.3 1.3 2 2 1013.1 3.6 13.0 23.7 31.6 82.4 66.6 225.3
08/05 05:10 2 94 5.23 1.1 2 2 1013.1 3.6 12.8 23.7 31.4 81.9 65.8 222.6
08/05 05:00 2 94 5.23 1.1 2 2 1013.1 3.6 12.8 23.7 31.4 81.9 65.8 222.6
08/05 04:50 2 94 5.23 1.1 2 2 1013.1 3.6 12.8 23.7 31.4 81.9 65.8 222.6
08/05 04:40 2 92 5.12 0.9 2 2 1013.1 3.6 12.6 23.5 30.9 80.7 64.3 217.3
08/05 04:30 2.1 92 5.15 1 2 2 1013.1 3.6 12.7 23.5 31.0 80.9 64.6 218.5
08/05 04:20 2.2 92 5.19 1 2 2 1013.1 3.6 12.7 23.5 31.1 81.2 65.1 220.1
08/05 04:10 2.2 92 5.19 1 2 2 1013.1 3.6 12.7 23.5 31.1 81.2 65.1 220.1
08/05 04:00 2.1 91 5.1 0.8 2 2 1013.1 3.6 12.5 23.4 30.8 80.4 63.9 216.1
08/05 03:50 2.1 90 5.04 0.7 2 2 1013.1 3.6 12.4 23.3 30.6 79.7 63.1 213.3
08/05 03:40 2.2 90 5.07 0.7 2 2 1013.1 3.6 12.5 23.3 30.7 79.9 63.5 214.4
08/05 03:30 2.2 90 5.07 0.7 2 2 1013.1 3.6 12.5 23.3 30.7 79.9 63.5 214.4
08/05 03:20 2 90 5.01 0.5 2 2 1013.1 3.6 12.4 23.3 30.5 79.5 62.8 212.1
08/05 03:10 2.1 89 4.98 0.5 2 2 1013.1 3.6 12.3 23.2 30.3 79.1 62.3 210.5
08/05 03:00 2 90 5.01 0.5 0 2 1013.1 3.6 12.4 23.3 30.5 79.5 62.8 212.1
08/05 02:40 2.1 88 4.93 0.4 0 2 1013.1 3.6 12.2 23.1 30.1 78.5 61.7 208.1
08/05 02:30 2.3 87 4.94 0.3 0 2 1013.1 3.6 12.2 23.1 30.1 78.4 61.6 208.1
08/05 02:20 2.2 87 4.91 0.2 0 2 1013.1 3.6 12.1 23.1 30.0 78.2 61.3 206.9
08/05 02:10 2 87 4.84 0.1 0 2 1013.1 3.6 12.0 23.0 29.8 77.7 60.5 204.2
08/05 02:00 1.8 87 4.77 -0.1 2 2 1013.1 3.6 11.8 23.0 29.6 77.1 59.8 201.4
08/05 01:50 1.6 88 4.76 -0.2 2 2 1013.1 3.6 11.8 23.0 29.6 77.2 59.8 201.5
08/05 01:40 1.6 87 4.71 -0.3 2 2 1013.1 3.6 11.7 22.9 29.4 76.6 59.1 199.1
08/05 01:30 1.5 88 4.73 -0.3 2 2 1013.1 3.6 11.8 23.0 29.5 77.0 59.5 200.3
08/05 01:20 1.7 86 4.69 -0.4 2 2 1013.1 3.6 11.7 22.8 29.3 76.3 58.8 197.9
08/05 01:10 1.9 84 4.64 -0.5 2 2 1013.1 3.6 11.6 22.7 29.0 75.6 58.0 195.1
08/05 01:00 2 83 4.62 -0.6 2 2 1013.1 3.6 11.5 22.7 28.9 75.3 57.6 193.9
08/05 00:50 1.8 83 4.55 -0.7 2 2 1013.1 3.6 11.4 22.6 28.7 74.7 56.9 191.2
08/05 00:40 1.7 84 4.58 -0.7 2 2 1013.1 3.6 11.4 22.7 28.9 75.2 57.3 192.8
08/05 00:30 1.9 83 4.59 -0.7 2 2 1013.1 3.6 11.4 22.6 28.8 75.1 57.3 192.8
08/05 00:10 2 81 4.51 -0.9 2 2 1013.1 3.6 11.3 22.5 28.5 74.1 56.2 188.9
08/05 00:00 2 79 4.39 -1.2 2 2 1013.1 3.6 11.0 22.3 28.0 72.9 54.6 183.3
07/05 23:50 1.8 81 4.45 -1.1 2 2 1013.1 3.6 11.1 22.4 28.3 73.7 55.5 186.6
07/05 23:40 1.7 80 4.36 -1.3 2 2 1013.1 3.6 11.0 22.3 28.0 72.8 54.4 182.7
07/05 23:30 1.4 83 4.43 -1.1 2 2 1013.1 3.6 11.1 22.5 28.4 73.8 55.6 186.6
07/05 23:20 1.2 83 4.37 -1.3 2 2 1013.1 3.6 11.0 22.5 28.2 73.4 54.9 184.3
07/05 23:10 1 86 4.47 -1.1 2 2 1013.1 3.6 11.2 22.7 28.7 74.6 56.4 189.4
07/05 23:00 0.8 86 4.41 -1.2 2 2 1013.1 3.6 11.1 22.6 28.5 74.2 55.7 187.1
07/05 22:50 0.7 87 4.43 -1.2 2 2 1013.1 3.6 11.1 22.7 28.6 74.5 56.1 188.2
07/05 22:40 0.9 86 4.44 -1.1 2 2 1013.1 3.6 11.2 22.6 28.6 74.4 56.1 188.2
07/05 22:30 1 86 4.47 -1 2 2 1013.1 3.6 11.2 22.7 28.7 74.6 56.4 189.4
07/05 22:20 1 87 4.52 -0.9 2 2 1013.1 3.6 11.3 22.8 28.9 75.2 57.0 191.7
07/05 22:10 1.1 86 4.5 -1 2 2 1013.1 3.6 11.3 22.7 28.8 74.9 56.7 190.6
07/05 22:00 1.2 84 4.43 -1.2 2 2 1013.1 3.6 11.1 22.6 28.5 74.0 55.7 187.1
07/05 21:50 1.3 84 4.46 -1.1 2 2 1013.1 3.6 11.2 22.6 28.5 74.3 56.0 188.2
07/05 21:40 1.2 84 4.43 -1.2 2 2 1013.1 3.6 11.1 22.6 28.5 74.0 55.7 187.1
07/05 21:30 1.2 84 4.43 -1.2 2 2 1013.1 3.6 11.1 22.6 28.5 74.0 55.7 187.1
07/05 21:20 1 84 4.37 -1.4 2 2 1013.1 3.6 11.0 22.5 28.3 73.6 55.1 184.7
07/05 21:10 1 85 4.42 -1.3 2 2 1013.1 3.6 11.1 22.6 28.5 74.1 55.7 187.1
07/05 21:00 1 85 4.42 -1.3 2 2 1013.1 3.6 11.1 22.6 28.5 74.1 55.7 187.1
07/05 20:50 1 84 4.37 -1.4 2 4 1013.1 3.6 11.0 22.5 28.3 73.6 55.1 184.7
07/05 20:40 1 83 4.31 -1.5 2 2 1013.1 3.6 10.9 22.4 28.0 72.9 54.3 182.0
07/05 20:30 1 84 4.37 -1.4 2 2 1013.1 3.6 11.0 22.5 28.3 73.6 55.1 184.7
07/05 20:20 0.9 84 4.34 -1.5 2 2 1013.1 3.6 10.9 22.5 28.2 73.3 54.7 183.6
07/05 20:10 0.8 85 4.36 -1.4 2 4 1013.1 3.6 11.0 22.5 28.3 73.7 55.1 184.8
07/05 20:00 0.8 84 4.31 -1.5 2 2 1013.1 3.6 10.9 22.5 28.1 73.1 54.4 182.4
07/05 19:50 0.8 85 4.36 -1.4 2 2 1013.1 3.6 11.0 22.5 28.3 73.7 55.1 184.8
07/05 19:40 0.7 85 4.33 -1.5 2 2 1013.1 3.6 10.9 22.5 28.2 73.4 54.7 183.6
07/05 19:30 0.8 84 4.31 -1.5 2 2 1013.1 3.6 10.9 22.5 28.1 73.1 54.4 182.4

Last Refresh: 08-May-2026 12:08:00

Bureau of Meteorology